sensor_id;sensor_type;location;lat;lon;timestamp;P1;durP1;ratioP1;P2;durP2;ratioP2
16416;SDS011;8317;52.186;5.688;2022-11-20T00:00:40;16.97;;;9.90;;
16416;SDS011;8317;52.186;5.688;2022-11-20T00:03:07;18.97;;;9.80;;
16416;SDS011;8317;52.186;5.688;2022-11-20T00:05:34;15.07;;;9.83;;
16416;SDS011;8317;52.186;5.688;2022-11-20T00:08:01;15.83;;;9.67;;
16416;SDS011;8317;52.186;5.688;2022-11-20T00:10:27;13.83;;;8.47;;
16416;SDS011;8317;52.186;5.688;2022-11-20T00:12:54;17.57;;;9.73;;
16416;SDS011;8317;52.186;5.688;2022-11-20T00:15:21;14.57;;;9.10;;
16416;SDS011;8317;52.186;5.688;2022-11-20T00:17:49;15.10;;;8.87;;
16416;SDS011;8317;52.186;5.688;2022-11-20T00:20:16;13.40;;;8.03;;
16416;SDS011;8317;52.186;5.688;2022-11-20T00:22:43;12.53;;;8.43;;
16416;SDS011;8317;52.186;5.688;2022-11-20T00:25:10;13.93;;;9.03;;
16416;SDS011;8317;52.186;5.688;2022-11-20T00:27:37;16.53;;;8.97;;
16416;SDS011;8317;52.186;5.688;2022-11-20T00:30:05;16.03;;;8.60;;
16416;SDS011;8317;52.186;5.688;2022-11-20T00:32:32;16.17;;;9.47;;
16416;SDS011;8317;52.186;5.688;2022-11-20T00:35:00;15.37;;;8.97;;
16416;SDS011;8317;52.186;5.688;2022-11-20T00:37:28;17.97;;;9.53;;
16416;SDS011;8317;52.186;5.688;2022-11-20T00:39:54;13.37;;;8.67;;
16416;SDS011;8317;52.186;5.688;2022-11-20T00:42:21;17.00;;;9.33;;
16416;SDS011;8317;52.186;5.688;2022-11-20T00:44:48;16.67;;;9.50;;
16416;SDS011;8317;52.186;5.688;2022-11-20T00:47:15;14.50;;;9.60;;
16416;SDS011;8317;52.186;5.688;2022-11-20T00:49:42;14.93;;;9.97;;
16416;SDS011;8317;52.186;5.688;2022-11-20T00:52:10;15.20;;;8.47;;
16416;SDS011;8317;52.186;5.688;2022-11-20T00:54:37;16.27;;;8.90;;
16416;SDS011;8317;52.186;5.688;2022-11-20T00:57:04;16.53;;;9.60;;
16416;SDS011;8317;52.186;5.688;2022-11-20T00:59:31;20.97;;;9.70;;
16416;SDS011;8317;52.186;5.688;2022-11-20T01:01:58;18.20;;;9.27;;
16416;SDS011;8317;52.186;5.688;2022-11-20T01:04:24;16.87;;;8.40;;
16416;SDS011;8317;52.186;5.688;2022-11-20T01:06:51;15.53;;;9.60;;
16416;SDS011;8317;52.186;5.688;2022-11-20T01:09:20;19.70;;;11.23;;
16416;SDS011;8317;52.186;5.688;2022-11-20T01:11:46;17.80;;;10.17;;
16416;SDS011;8317;52.186;5.688;2022-11-20T01:14:14;21.90;;;10.77;;
16416;SDS011;8317;52.186;5.688;2022-11-20T01:16:43;16.23;;;9.20;;
16416;SDS011;8317;52.186;5.688;2022-11-20T01:19:15;17.43;;;10.27;;
16416;SDS011;8317;52.186;5.688;2022-11-20T01:21:43;14.90;;;9.60;;
16416;SDS011;8317;52.186;5.688;2022-11-20T01:24:12;27.63;;;14.30;;
16416;SDS011;8317;52.186;5.688;2022-11-20T01:26:42;28.83;;;13.97;;
16416;SDS011;8317;52.186;5.688;2022-11-20T01:29:12;35.87;;;16.60;;
16416;SDS011;8317;52.186;5.688;2022-11-20T01:31:40;35.90;;;15.17;;
16416;SDS011;8317;52.186;5.688;2022-11-20T01:34:09;27.87;;;12.07;;
16416;SDS011;8317;52.186;5.688;2022-11-20T01:36:37;21.00;;;11.30;;
16416;SDS011;8317;52.186;5.688;2022-11-20T01:39:06;33.13;;;13.40;;
16416;SDS011;8317;52.186;5.688;2022-11-20T01:41:35;27.53;;;13.03;;
16416;SDS011;8317;52.186;5.688;2022-11-20T01:44:22;42.93;;;17.80;;
16416;SDS011;8317;52.186;5.688;2022-11-20T01:47:04;38.33;;;16.00;;
16416;SDS011;8317;52.186;5.688;2022-11-20T01:49:36;27.53;;;14.33;;
16416;SDS011;8317;52.186;5.688;2022-11-20T01:52:07;28.07;;;11.77;;
16416;SDS011;8317;52.186;5.688;2022-11-20T01:54:40;17.53;;;9.33;;
16416;SDS011;8317;52.186;5.688;2022-11-20T01:57:10;15.67;;;9.07;;
16416;SDS011;8317;52.186;5.688;2022-11-20T01:59:43;18.97;;;9.87;;
16416;SDS011;8317;52.186;5.688;2022-11-20T02:02:15;25.60;;;12.07;;
16416;SDS011;8317;52.186;5.688;2022-11-20T02:04:42;20.53;;;12.60;;
16416;SDS011;8317;52.186;5.688;2022-11-20T02:07:10;19.70;;;12.00;;
16416;SDS011;8317;52.186;5.688;2022-11-20T02:09:37;18.83;;;11.70;;
16416;SDS011;8317;52.186;5.688;2022-11-20T02:12:04;19.60;;;11.07;;
16416;SDS011;8317;52.186;5.688;2022-11-20T02:14:53;11.93;;;8.27;;
16416;SDS011;8317;52.186;5.688;2022-11-20T02:17:19;12.30;;;8.33;;
16416;SDS011;8317;52.186;5.688;2022-11-20T02:19:47;16.40;;;8.80;;
16416;SDS011;8317;52.186;5.688;2022-11-20T02:22:14;15.60;;;8.37;;
16416;SDS011;8317;52.186;5.688;2022-11-20T02:24:47;14.90;;;8.60;;
16416;SDS011;8317;52.186;5.688;2022-11-20T02:27:16;13.67;;;8.07;;
16416;SDS011;8317;52.186;5.688;2022-11-20T02:29:45;17.97;;;8.40;;
16416;SDS011;8317;52.186;5.688;2022-11-20T02:32:19;14.03;;;8.20;;
16416;SDS011;8317;52.186;5.688;2022-11-20T02:34:46;13.53;;;7.93;;
16416;SDS011;8317;52.186;5.688;2022-11-20T02:37:13;14.90;;;8.67;;
16416;SDS011;8317;52.186;5.688;2022-11-20T02:39:41;15.43;;;9.10;;
16416;SDS011;8317;52.186;5.688;2022-11-20T02:42:12;19.07;;;8.57;;
16416;SDS011;8317;52.186;5.688;2022-11-20T02:44:38;14.00;;;8.00;;
16416;SDS011;8317;52.186;5.688;2022-11-20T02:47:05;12.47;;;8.40;;
16416;SDS011;8317;52.186;5.688;2022-11-20T02:49:32;15.03;;;8.33;;
16416;SDS011;8317;52.186;5.688;2022-11-20T02:51:59;12.77;;;8.63;;
16416;SDS011;8317;52.186;5.688;2022-11-20T02:54:26;13.63;;;8.73;;
16416;SDS011;8317;52.186;5.688;2022-11-20T02:56:53;11.60;;;8.07;;
16416;SDS011;8317;52.186;5.688;2022-11-20T02:59:21;13.53;;;7.70;;
16416;SDS011;8317;52.186;5.688;2022-11-20T03:01:48;16.10;;;8.30;;
16416;SDS011;8317;52.186;5.688;2022-11-20T03:04:15;15.43;;;8.83;;
16416;SDS011;8317;52.186;5.688;2022-11-20T03:06:42;15.53;;;9.13;;
16416;SDS011;8317;52.186;5.688;2022-11-20T03:09:09;15.47;;;9.43;;
16416;SDS011;8317;52.186;5.688;2022-11-20T03:11:36;16.80;;;9.33;;
16416;SDS011;8317;52.186;5.688;2022-11-20T03:14:03;15.53;;;9.40;;
16416;SDS011;8317;52.186;5.688;2022-11-20T03:16:32;15.47;;;8.80;;
16416;SDS011;8317;52.186;5.688;2022-11-20T03:18:59;12.57;;;8.10;;
16416;SDS011;8317;52.186;5.688;2022-11-20T03:21:26;16.43;;;7.90;;
16416;SDS011;8317;52.186;5.688;2022-11-20T03:23:53;13.10;;;8.17;;
16416;SDS011;8317;52.186;5.688;2022-11-20T03:26:20;13.43;;;8.13;;
16416;SDS011;8317;52.186;5.688;2022-11-20T03:28:49;14.20;;;7.70;;
16416;SDS011;8317;52.186;5.688;2022-11-20T03:31:19;12.23;;;8.17;;
16416;SDS011;8317;52.186;5.688;2022-11-20T03:33:48;16.13;;;8.20;;
16416;SDS011;8317;52.186;5.688;2022-11-20T03:36:16;14.20;;;7.80;;
16416;SDS011;8317;52.186;5.688;2022-11-20T03:38:44;13.23;;;8.17;;
16416;SDS011;8317;52.186;5.688;2022-11-20T03:41:12;12.37;;;7.47;;
16416;SDS011;8317;52.186;5.688;2022-11-20T03:43:40;16.33;;;9.10;;
16416;SDS011;8317;52.186;5.688;2022-11-20T03:46:07;14.40;;;8.43;;
16416;SDS011;8317;52.186;5.688;2022-11-20T03:48:34;14.60;;;8.07;;
16416;SDS011;8317;52.186;5.688;2022-11-20T03:51:10;11.67;;;7.73;;
16416;SDS011;8317;52.186;5.688;2022-11-20T03:53:38;12.43;;;7.37;;
16416;SDS011;8317;52.186;5.688;2022-11-20T03:56:05;13.10;;;7.37;;
16416;SDS011;8317;52.186;5.688;2022-11-20T03:58:33;12.73;;;7.47;;
16416;SDS011;8317;52.186;5.688;2022-11-20T04:01:04;12.07;;;7.60;;
16416;SDS011;8317;52.186;5.688;2022-11-20T04:03:32;18.90;;;9.03;;
16416;SDS011;8317;52.186;5.688;2022-11-20T04:06:01;14.30;;;8.07;;
16416;SDS011;8317;52.186;5.688;2022-11-20T04:08:30;13.13;;;7.47;;
16416;SDS011;8317;52.186;5.688;2022-11-20T04:11:07;16.77;;;8.17;;
16416;SDS011;8317;52.186;5.688;2022-11-20T04:13:35;13.03;;;8.60;;
16416;SDS011;8317;52.186;5.688;2022-11-20T04:16:02;15.30;;;8.67;;
16416;SDS011;8317;52.186;5.688;2022-11-20T04:18:29;12.80;;;8.10;;
16416;SDS011;8317;52.186;5.688;2022-11-20T04:20:56;13.40;;;8.33;;
16416;SDS011;8317;52.186;5.688;2022-11-20T04:23:23;14.10;;;7.83;;
16416;SDS011;8317;52.186;5.688;2022-11-20T04:25:51;15.07;;;7.63;;
16416;SDS011;8317;52.186;5.688;2022-11-20T04:28:18;13.63;;;8.07;;
16416;SDS011;8317;52.186;5.688;2022-11-20T04:30:46;12.73;;;8.07;;
16416;SDS011;8317;52.186;5.688;2022-11-20T04:33:13;12.80;;;7.90;;
16416;SDS011;8317;52.186;5.688;2022-11-20T04:35:39;13.73;;;8.53;;
16416;SDS011;8317;52.186;5.688;2022-11-20T04:38:06;17.10;;;8.43;;
16416;SDS011;8317;52.186;5.688;2022-11-20T04:40:33;12.93;;;7.47;;
16416;SDS011;8317;52.186;5.688;2022-11-20T04:43:01;11.87;;;7.03;;
16416;SDS011;8317;52.186;5.688;2022-11-20T04:45:28;12.97;;;7.40;;
16416;SDS011;8317;52.186;5.688;2022-11-20T04:47:55;16.60;;;7.80;;
16416;SDS011;8317;52.186;5.688;2022-11-20T04:50:22;12.20;;;7.43;;
16416;SDS011;8317;52.186;5.688;2022-11-20T04:52:49;11.83;;;6.83;;
16416;SDS011;8317;52.186;5.688;2022-11-20T04:55:16;13.57;;;7.93;;
16416;SDS011;8317;52.186;5.688;2022-11-20T04:57:42;8.93;;;6.57;;
16416;SDS011;8317;52.186;5.688;2022-11-20T05:00:11;12.27;;;7.40;;
16416;SDS011;8317;52.186;5.688;2022-11-20T05:02:39;14.07;;;7.83;;
16416;SDS011;8317;52.186;5.688;2022-11-20T05:05:06;14.37;;;7.60;;
16416;SDS011;8317;52.186;5.688;2022-11-20T05:07:34;15.53;;;7.40;;
16416;SDS011;8317;52.186;5.688;2022-11-20T05:10:01;11.93;;;7.70;;
16416;SDS011;8317;52.186;5.688;2022-11-20T05:12:27;10.70;;;7.57;;
16416;SDS011;8317;52.186;5.688;2022-11-20T05:14:54;12.43;;;7.70;;
16416;SDS011;8317;52.186;5.688;2022-11-20T05:17:22;14.17;;;8.00;;
16416;SDS011;8317;52.186;5.688;2022-11-20T05:19:49;14.90;;;8.20;;
16416;SDS011;8317;52.186;5.688;2022-11-20T05:22:16;18.53;;;9.47;;
16416;SDS011;8317;52.186;5.688;2022-11-20T05:24:43;19.93;;;11.37;;
16416;SDS011;8317;52.186;5.688;2022-11-20T05:27:10;22.30;;;11.53;;
16416;SDS011;8317;52.186;5.688;2022-11-20T05:29:37;17.43;;;9.87;;
16416;SDS011;8317;52.186;5.688;2022-11-20T05:32:04;11.33;;;6.83;;
16416;SDS011;8317;52.186;5.688;2022-11-20T05:34:35;15.53;;;7.37;;
16416;SDS011;8317;52.186;5.688;2022-11-20T05:37:02;12.30;;;7.57;;
16416;SDS011;8317;52.186;5.688;2022-11-20T05:39:29;11.53;;;7.13;;
16416;SDS011;8317;52.186;5.688;2022-11-20T05:41:56;13.47;;;7.27;;
16416;SDS011;8317;52.186;5.688;2022-11-20T05:44:37;9.43;;;6.73;;
16416;SDS011;8317;52.186;5.688;2022-11-20T05:47:04;11.70;;;7.37;;
16416;SDS011;8317;52.186;5.688;2022-11-20T05:49:31;9.80;;;6.97;;
16416;SDS011;8317;52.186;5.688;2022-11-20T05:51:59;10.27;;;7.03;;
16416;SDS011;8317;52.186;5.688;2022-11-20T05:54:26;13.43;;;7.77;;
16416;SDS011;8317;52.186;5.688;2022-11-20T05:56:53;11.80;;;7.57;;
16416;SDS011;8317;52.186;5.688;2022-11-20T05:59:19;11.13;;;7.20;;
16416;SDS011;8317;52.186;5.688;2022-11-20T06:01:46;13.07;;;7.20;;
16416;SDS011;8317;52.186;5.688;2022-11-20T06:04:13;14.73;;;7.83;;
16416;SDS011;8317;52.186;5.688;2022-11-20T06:06:40;15.67;;;8.27;;
16416;SDS011;8317;52.186;5.688;2022-11-20T06:09:08;10.67;;;7.47;;
16416;SDS011;8317;52.186;5.688;2022-11-20T06:11:35;15.17;;;9.33;;
16416;SDS011;8317;52.186;5.688;2022-11-20T06:14:02;13.40;;;8.83;;
16416;SDS011;8317;52.186;5.688;2022-11-20T06:16:29;16.17;;;9.53;;
16416;SDS011;8317;52.186;5.688;2022-11-20T06:18:56;14.53;;;9.40;;
16416;SDS011;8317;52.186;5.688;2022-11-20T06:21:23;15.47;;;9.00;;
16416;SDS011;8317;52.186;5.688;2022-11-20T06:23:50;13.87;;;7.90;;
16416;SDS011;8317;52.186;5.688;2022-11-20T06:26:20;15.07;;;8.03;;
16416;SDS011;8317;52.186;5.688;2022-11-20T06:28:48;15.87;;;7.97;;
16416;SDS011;8317;52.186;5.688;2022-11-20T06:31:16;13.53;;;7.63;;
16416;SDS011;8317;52.186;5.688;2022-11-20T06:33:44;13.53;;;7.60;;
16416;SDS011;8317;52.186;5.688;2022-11-20T06:36:12;16.17;;;8.40;;
16416;SDS011;8317;52.186;5.688;2022-11-20T06:38:40;15.47;;;8.50;;
16416;SDS011;8317;52.186;5.688;2022-11-20T06:41:08;14.90;;;8.03;;
16416;SDS011;8317;52.186;5.688;2022-11-20T06:43:39;17.13;;;9.30;;
16416;SDS011;8317;52.186;5.688;2022-11-20T06:46:06;14.90;;;9.03;;
16416;SDS011;8317;52.186;5.688;2022-11-20T06:48:35;14.73;;;9.00;;
16416;SDS011;8317;52.186;5.688;2022-11-20T06:51:02;15.40;;;8.93;;
16416;SDS011;8317;52.186;5.688;2022-11-20T06:53:29;14.70;;;8.47;;
16416;SDS011;8317;52.186;5.688;2022-11-20T06:55:56;20.87;;;9.13;;
16416;SDS011;8317;52.186;5.688;2022-11-20T06:58:25;26.03;;;12.30;;
16416;SDS011;8317;52.186;5.688;2022-11-20T07:00:57;19.63;;;10.97;;
16416;SDS011;8317;52.186;5.688;2022-11-20T07:03:24;32.00;;;15.03;;
16416;SDS011;8317;52.186;5.688;2022-11-20T07:05:51;29.23;;;13.40;;
16416;SDS011;8317;52.186;5.688;2022-11-20T07:08:20;23.73;;;11.73;;
16416;SDS011;8317;52.186;5.688;2022-11-20T07:10:46;22.97;;;10.80;;
16416;SDS011;8317;52.186;5.688;2022-11-20T07:13:13;18.93;;;10.43;;
16416;SDS011;8317;52.186;5.688;2022-11-20T07:15:40;17.53;;;9.17;;
16416;SDS011;8317;52.186;5.688;2022-11-20T07:18:08;16.67;;;9.13;;
16416;SDS011;8317;52.186;5.688;2022-11-20T07:20:36;13.30;;;8.20;;
16416;SDS011;8317;52.186;5.688;2022-11-20T07:23:03;15.80;;;8.10;;
16416;SDS011;8317;52.186;5.688;2022-11-20T07:25:29;13.67;;;8.07;;
16416;SDS011;8317;52.186;5.688;2022-11-20T07:27:56;12.37;;;7.97;;
16416;SDS011;8317;52.186;5.688;2022-11-20T07:30:24;20.17;;;11.33;;
16416;SDS011;8317;52.186;5.688;2022-11-20T07:32:51;17.13;;;10.47;;
16416;SDS011;8317;52.186;5.688;2022-11-20T07:35:20;17.10;;;10.40;;
16416;SDS011;8317;52.186;5.688;2022-11-20T07:37:47;19.20;;;11.60;;
16416;SDS011;8317;52.186;5.688;2022-11-20T07:40:14;26.00;;;12.23;;
16416;SDS011;8317;52.186;5.688;2022-11-20T07:42:47;27.17;;;13.73;;
16416;SDS011;8317;52.186;5.688;2022-11-20T07:45:15;46.13;;;20.13;;
16416;SDS011;8317;52.186;5.688;2022-11-20T07:47:42;102.37;;;35.73;;
16416;SDS011;8317;52.186;5.688;2022-11-20T07:50:09;73.23;;;29.23;;
16416;SDS011;8317;52.186;5.688;2022-11-20T07:52:37;58.40;;;23.23;;
16416;SDS011;8317;52.186;5.688;2022-11-20T07:55:05;45.23;;;21.07;;
16416;SDS011;8317;52.186;5.688;2022-11-20T07:57:32;38.80;;;18.67;;
16416;SDS011;8317;52.186;5.688;2022-11-20T07:59:59;55.37;;;25.27;;
16416;SDS011;8317;52.186;5.688;2022-11-20T08:02:26;26.93;;;15.53;;
16416;SDS011;8317;52.186;5.688;2022-11-20T08:04:53;27.23;;;15.53;;
16416;SDS011;8317;52.186;5.688;2022-11-20T08:07:20;28.30;;;14.53;;
16416;SDS011;8317;52.186;5.688;2022-11-20T08:09:48;21.60;;;12.40;;
16416;SDS011;8317;52.186;5.688;2022-11-20T08:12:16;29.80;;;17.73;;
16416;SDS011;8317;52.186;5.688;2022-11-20T08:15:02;33.60;;;18.33;;
16416;SDS011;8317;52.186;5.688;2022-11-20T08:17:29;28.63;;;17.90;;
16416;SDS011;8317;52.186;5.688;2022-11-20T08:19:56;30.23;;;17.80;;
16416;SDS011;8317;52.186;5.688;2022-11-20T08:22:23;30.87;;;16.80;;
16416;SDS011;8317;52.186;5.688;2022-11-20T08:24:52;31.90;;;19.00;;
16416;SDS011;8317;52.186;5.688;2022-11-20T08:27:19;30.67;;;17.70;;
16416;SDS011;8317;52.186;5.688;2022-11-20T08:29:45;32.97;;;17.87;;
16416;SDS011;8317;52.186;5.688;2022-11-20T08:32:12;23.97;;;14.77;;
16416;SDS011;8317;52.186;5.688;2022-11-20T08:34:39;23.93;;;13.83;;
16416;SDS011;8317;52.186;5.688;2022-11-20T08:37:06;24.23;;;14.53;;
16416;SDS011;8317;52.186;5.688;2022-11-20T08:39:33;19.70;;;11.77;;
16416;SDS011;8317;52.186;5.688;2022-11-20T08:42:01;21.97;;;11.47;;
16416;SDS011;8317;52.186;5.688;2022-11-20T08:44:28;20.73;;;12.37;;
16416;SDS011;8317;52.186;5.688;2022-11-20T08:46:55;24.13;;;12.50;;
16416;SDS011;8317;52.186;5.688;2022-11-20T08:49:22;20.67;;;12.80;;
16416;SDS011;8317;52.186;5.688;2022-11-20T08:51:49;29.07;;;14.47;;
16416;SDS011;8317;52.186;5.688;2022-11-20T08:54:18;25.73;;;14.47;;
16416;SDS011;8317;52.186;5.688;2022-11-20T08:56:47;25.97;;;14.17;;
16416;SDS011;8317;52.186;5.688;2022-11-20T08:59:15;30.40;;;16.80;;
16416;SDS011;8317;52.186;5.688;2022-11-20T09:01:42;28.03;;;16.47;;
16416;SDS011;8317;52.186;5.688;2022-11-20T09:04:09;27.33;;;14.83;;
16416;SDS011;8317;52.186;5.688;2022-11-20T09:06:36;30.50;;;16.73;;
16416;SDS011;8317;52.186;5.688;2022-11-20T09:09:03;29.10;;;14.40;;
16416;SDS011;8317;52.186;5.688;2022-11-20T09:11:30;31.93;;;17.83;;
16416;SDS011;8317;52.186;5.688;2022-11-20T09:13:57;30.13;;;16.87;;
16416;SDS011;8317;52.186;5.688;2022-11-20T09:16:26;28.17;;;16.07;;
16416;SDS011;8317;52.186;5.688;2022-11-20T09:18:53;30.77;;;16.80;;
16416;SDS011;8317;52.186;5.688;2022-11-20T09:21:20;27.03;;;16.30;;
16416;SDS011;8317;52.186;5.688;2022-11-20T09:23:47;32.90;;;16.03;;
16416;SDS011;8317;52.186;5.688;2022-11-20T09:26:14;30.77;;;15.87;;
16416;SDS011;8317;52.186;5.688;2022-11-20T09:28:41;25.60;;;14.50;;
16416;SDS011;8317;52.186;5.688;2022-11-20T09:31:09;27.93;;;16.53;;
16416;SDS011;8317;52.186;5.688;2022-11-20T09:33:49;26.20;;;15.23;;
16416;SDS011;8317;52.186;5.688;2022-11-20T09:36:16;28.10;;;14.53;;
16416;SDS011;8317;52.186;5.688;2022-11-20T09:38:44;26.53;;;15.03;;
16416;SDS011;8317;52.186;5.688;2022-11-20T09:41:17;30.20;;;17.73;;
16416;SDS011;8317;52.186;5.688;2022-11-20T09:43:59;28.90;;;15.60;;
16416;SDS011;8317;52.186;5.688;2022-11-20T09:46:36;33.47;;;16.90;;
16416;SDS011;8317;52.186;5.688;2022-11-20T09:49:17;35.43;;;19.20;;
16416;SDS011;8317;52.186;5.688;2022-11-20T09:51:52;29.30;;;17.00;;
16416;SDS011;8317;52.186;5.688;2022-11-20T09:54:25;29.20;;;16.07;;
16416;SDS011;8317;52.186;5.688;2022-11-20T09:56:56;31.00;;;17.53;;
16416;SDS011;8317;52.186;5.688;2022-11-20T09:59:29;31.00;;;16.30;;
16416;SDS011;8317;52.186;5.688;2022-11-20T10:02:01;28.43;;;14.53;;
16416;SDS011;8317;52.186;5.688;2022-11-20T10:04:34;35.83;;;15.67;;
16416;SDS011;8317;52.186;5.688;2022-11-20T10:07:11;30.03;;;16.57;;
16416;SDS011;8317;52.186;5.688;2022-11-20T10:09:43;30.03;;;16.67;;
16416;SDS011;8317;52.186;5.688;2022-11-20T10:12:18;30.60;;;16.87;;
16416;SDS011;8317;52.186;5.688;2022-11-20T10:14:53;27.57;;;15.47;;
16416;SDS011;8317;52.186;5.688;2022-11-20T10:17:31;28.43;;;16.83;;
16416;SDS011;8317;52.186;5.688;2022-11-20T10:20:16;32.50;;;18.93;;
16416;SDS011;8317;52.186;5.688;2022-11-20T10:22:50;35.17;;;19.23;;
16416;SDS011;8317;52.186;5.688;2022-11-20T10:25:37;30.20;;;18.63;;
16416;SDS011;8317;52.186;5.688;2022-11-20T10:28:16;31.40;;;17.13;;
16416;SDS011;8317;52.186;5.688;2022-11-20T10:30:54;31.83;;;16.53;;
16416;SDS011;8317;52.186;5.688;2022-11-20T10:33:25;30.57;;;18.17;;
16416;SDS011;8317;52.186;5.688;2022-11-20T10:35:59;37.73;;;17.83;;
16416;SDS011;8317;52.186;5.688;2022-11-20T10:38:35;30.43;;;17.50;;
16416;SDS011;8317;52.186;5.688;2022-11-20T10:41:05;34.57;;;18.80;;
16416;SDS011;8317;52.186;5.688;2022-11-20T10:43:52;32.83;;;18.77;;
16416;SDS011;8317;52.186;5.688;2022-11-20T10:46:24;27.87;;;16.93;;
16416;SDS011;8317;52.186;5.688;2022-11-20T10:48:56;39.93;;;20.87;;
16416;SDS011;8317;52.186;5.688;2022-11-20T10:51:30;31.73;;;20.20;;
16416;SDS011;8317;52.186;5.688;2022-11-20T10:54:09;32.80;;;18.47;;
16416;SDS011;8317;52.186;5.688;2022-11-20T10:56:43;32.10;;;17.37;;
16416;SDS011;8317;52.186;5.688;2022-11-20T11:02:14;30.53;;;18.77;;
16416;SDS011;8317;52.186;5.688;2022-11-20T11:04:43;29.67;;;17.13;;
16416;SDS011;8317;52.186;5.688;2022-11-20T11:07:14;29.60;;;17.87;;
16416;SDS011;8317;52.186;5.688;2022-11-20T11:09:48;32.83;;;17.80;;
16416;SDS011;8317;52.186;5.688;2022-11-20T11:12:16;28.80;;;17.47;;
16416;SDS011;8317;52.186;5.688;2022-11-20T11:14:44;34.67;;;18.40;;
16416;SDS011;8317;52.186;5.688;2022-11-20T11:17:26;34.13;;;18.63;;
16416;SDS011;8317;52.186;5.688;2022-11-20T11:19:58;36.67;;;19.93;;
16416;SDS011;8317;52.186;5.688;2022-11-20T11:22:27;35.83;;;21.30;;
16416;SDS011;8317;52.186;5.688;2022-11-20T11:24:55;38.13;;;20.17;;
16416;SDS011;8317;52.186;5.688;2022-11-20T11:27:22;49.93;;;24.77;;
16416;SDS011;8317;52.186;5.688;2022-11-20T11:29:49;37.97;;;21.27;;
16416;SDS011;8317;52.186;5.688;2022-11-20T11:32:27;50.10;;;23.10;;
16416;SDS011;8317;52.186;5.688;2022-11-20T11:35:00;47.57;;;22.20;;
16416;SDS011;8317;52.186;5.688;2022-11-20T11:37:32;41.27;;;22.37;;
16416;SDS011;8317;52.186;5.688;2022-11-20T11:40:01;48.80;;;24.37;;
16416;SDS011;8317;52.186;5.688;2022-11-20T11:42:29;50.73;;;24.20;;
16416;SDS011;8317;52.186;5.688;2022-11-20T11:44:57;57.07;;;25.60;;
16416;SDS011;8317;52.186;5.688;2022-11-20T11:47:31;71.87;;;28.47;;
16416;SDS011;8317;52.186;5.688;2022-11-20T11:50:07;45.37;;;22.47;;
16416;SDS011;8317;52.186;5.688;2022-11-20T11:52:44;56.57;;;25.70;;
16416;SDS011;8317;52.186;5.688;2022-11-20T11:55:17;45.83;;;23.30;;
16416;SDS011;8317;52.186;5.688;2022-11-20T11:57:48;48.53;;;25.47;;
16416;SDS011;8317;52.186;5.688;2022-11-20T12:00:20;41.37;;;22.27;;
16416;SDS011;8317;52.186;5.688;2022-11-20T12:02:52;43.33;;;22.80;;
16416;SDS011;8317;52.186;5.688;2022-11-20T12:05:24;39.23;;;22.47;;
16416;SDS011;8317;52.186;5.688;2022-11-20T12:07:56;43.00;;;22.93;;
16416;SDS011;8317;52.186;5.688;2022-11-20T12:10:39;41.97;;;22.77;;
16416;SDS011;8317;52.186;5.688;2022-11-20T12:13:14;70.77;;;28.67;;
16416;SDS011;8317;52.186;5.688;2022-11-20T12:15:51;43.77;;;23.50;;
16416;SDS011;8317;52.186;5.688;2022-11-20T12:18:19;37.33;;;20.53;;
16416;SDS011;8317;52.186;5.688;2022-11-20T12:20:52;46.67;;;23.97;;
16416;SDS011;8317;52.186;5.688;2022-11-20T12:23:28;56.70;;;28.20;;
16416;SDS011;8317;52.186;5.688;2022-11-20T12:26:03;44.07;;;22.83;;
16416;SDS011;8317;52.186;5.688;2022-11-20T12:28:39;41.63;;;22.53;;
16416;SDS011;8317;52.186;5.688;2022-11-20T12:31:36;43.57;;;22.27;;
16416;SDS011;8317;52.186;5.688;2022-11-20T12:34:13;41.97;;;22.50;;
16416;SDS011;8317;52.186;5.688;2022-11-20T12:37:00;46.33;;;24.53;;
16416;SDS011;8317;52.186;5.688;2022-11-20T12:39:40;46.33;;;24.80;;
16416;SDS011;8317;52.186;5.688;2022-11-20T12:42:12;42.20;;;23.07;;
16416;SDS011;8317;52.186;5.688;2022-11-20T12:48:13;38.50;;;22.13;;
16416;SDS011;8317;52.186;5.688;2022-11-20T12:51:05;37.27;;;20.63;;
16416;SDS011;8317;52.186;5.688;2022-11-20T12:53:43;41.63;;;22.13;;
16416;SDS011;8317;52.186;5.688;2022-11-20T12:56:24;44.37;;;23.43;;
16416;SDS011;8317;52.186;5.688;2022-11-20T12:59:02;40.87;;;21.93;;
16416;SDS011;8317;52.186;5.688;2022-11-20T13:01:39;39.90;;;21.33;;
16416;SDS011;8317;52.186;5.688;2022-11-20T13:04:18;41.83;;;22.10;;
16416;SDS011;8317;52.186;5.688;2022-11-20T13:06:53;40.37;;;22.43;;
16416;SDS011;8317;52.186;5.688;2022-11-20T13:09:21;44.90;;;23.27;;
16416;SDS011;8317;52.186;5.688;2022-11-20T13:11:55;42.03;;;21.63;;
16416;SDS011;8317;52.186;5.688;2022-11-20T13:14:31;42.27;;;22.37;;
16416;SDS011;8317;52.186;5.688;2022-11-20T13:17:04;37.97;;;22.17;;
16416;SDS011;8317;52.186;5.688;2022-11-20T13:19:36;36.33;;;21.70;;
16416;SDS011;8317;52.186;5.688;2022-11-20T13:22:03;39.40;;;22.60;;
16416;SDS011;8317;52.186;5.688;2022-11-20T13:24:31;44.93;;;23.67;;
16416;SDS011;8317;52.186;5.688;2022-11-20T13:27:17;47.90;;;22.90;;
16416;SDS011;8317;52.186;5.688;2022-11-20T13:29:46;44.83;;;23.73;;
16416;SDS011;8317;52.186;5.688;2022-11-20T13:32:25;46.10;;;23.20;;
16416;SDS011;8317;52.186;5.688;2022-11-20T13:34:57;55.40;;;27.73;;
16416;SDS011;8317;52.186;5.688;2022-11-20T13:37:28;49.73;;;24.50;;
16416;SDS011;8317;52.186;5.688;2022-11-20T13:40:12;50.13;;;26.43;;
16416;SDS011;8317;52.186;5.688;2022-11-20T13:42:54;50.00;;;26.03;;
16416;SDS011;8317;52.186;5.688;2022-11-20T13:45:23;46.13;;;24.40;;
16416;SDS011;8317;52.186;5.688;2022-11-20T13:47:52;54.23;;;27.53;;
16416;SDS011;8317;52.186;5.688;2022-11-20T13:50:21;61.73;;;31.90;;
16416;SDS011;8317;52.186;5.688;2022-11-20T13:53:07;49.67;;;25.17;;
16416;SDS011;8317;52.186;5.688;2022-11-20T13:55:46;50.33;;;25.23;;
16416;SDS011;8317;52.186;5.688;2022-11-20T13:58:26;60.10;;;27.50;;
16416;SDS011;8317;52.186;5.688;2022-11-20T14:01:08;55.47;;;26.53;;
16416;SDS011;8317;52.186;5.688;2022-11-20T14:03:36;50.93;;;26.07;;
16416;SDS011;8317;52.186;5.688;2022-11-20T14:06:05;58.00;;;27.30;;
16416;SDS011;8317;52.186;5.688;2022-11-20T14:08:40;53.50;;;28.07;;
16416;SDS011;8317;52.186;5.688;2022-11-20T14:11:14;53.17;;;28.13;;
16416;SDS011;8317;52.186;5.688;2022-11-20T14:13:54;56.17;;;27.53;;
16416;SDS011;8317;52.186;5.688;2022-11-20T14:16:24;55.00;;;26.43;;
16416;SDS011;8317;52.186;5.688;2022-11-20T14:18:54;56.40;;;28.03;;
16416;SDS011;8317;52.186;5.688;2022-11-20T14:21:23;52.20;;;27.33;;
16416;SDS011;8317;52.186;5.688;2022-11-20T14:24:02;50.70;;;26.93;;
16416;SDS011;8317;52.186;5.688;2022-11-20T14:26:30;54.10;;;28.93;;
16416;SDS011;8317;52.186;5.688;2022-11-20T14:28:59;55.50;;;29.93;;
16416;SDS011;8317;52.186;5.688;2022-11-20T14:31:26;53.27;;;27.60;;
16416;SDS011;8317;52.186;5.688;2022-11-20T14:33:54;60.70;;;29.30;;
16416;SDS011;8317;52.186;5.688;2022-11-20T14:36:23;58.77;;;28.43;;
16416;SDS011;8317;52.186;5.688;2022-11-20T14:38:51;59.37;;;29.30;;
16416;SDS011;8317;52.186;5.688;2022-11-20T14:41:20;70.37;;;33.17;;
16416;SDS011;8317;52.186;5.688;2022-11-20T14:43:47;65.50;;;29.17;;
16416;SDS011;8317;52.186;5.688;2022-11-20T14:46:20;66.00;;;30.47;;
16416;SDS011;8317;52.186;5.688;2022-11-20T14:48:49;61.97;;;30.90;;
16416;SDS011;8317;52.186;5.688;2022-11-20T14:51:23;57.20;;;28.37;;
16416;SDS011;8317;52.186;5.688;2022-11-20T14:53:54;60.47;;;29.90;;
16416;SDS011;8317;52.186;5.688;2022-11-20T14:56:21;59.70;;;29.77;;
16416;SDS011;8317;52.186;5.688;2022-11-20T14:58:55;60.50;;;29.37;;
16416;SDS011;8317;52.186;5.688;2022-11-20T15:01:26;67.30;;;29.50;;
16416;SDS011;8317;52.186;5.688;2022-11-20T15:03:59;62.03;;;29.37;;